createdAt,value
2023-08-26T00:01:38.633Z,21.87
2023-08-26T00:04:05.710Z,21.79
2023-08-26T00:06:32.445Z,21.56
2023-08-26T00:08:59.138Z,21.49
2023-08-26T00:11:25.857Z,21.39
2023-08-26T00:13:52.576Z,21.36
2023-08-26T00:16:19.278Z,21.50
2023-08-26T00:18:48.380Z,21.51
2023-08-26T00:21:16.070Z,21.56
2023-08-26T00:23:42.914Z,21.62
2023-08-26T00:26:12.401Z,21.65
2023-08-26T00:28:39.125Z,21.67
2023-08-26T00:31:05.816Z,21.63
2023-08-26T00:33:32.540Z,21.58
2023-08-26T00:35:59.191Z,21.53
2023-08-26T00:38:26.089Z,21.64
2023-08-26T00:40:52.824Z,21.63
2023-08-26T00:43:19.446Z,21.62
2023-08-26T00:45:47.585Z,21.50
2023-08-26T00:48:15.542Z,21.46
2023-08-26T00:50:44.898Z,21.45
2023-08-26T00:53:13.563Z,21.37
2023-08-26T00:55:41.680Z,21.43
2023-08-26T00:58:08.861Z,21.45
2023-08-26T01:00:37.552Z,21.39
2023-08-26T01:03:05.289Z,21.31
2023-08-26T01:05:32.131Z,21.08
2023-08-26T01:08:01.088Z,21.18
2023-08-26T01:11:05.637Z,21.08
2023-08-26T01:14:03.463Z,21.11
2023-08-26T01:16:34.549Z,21.10
2023-08-26T01:19:03.450Z,21.03
2023-08-26T01:21:37.392Z,20.96
2023-08-26T01:24:05.448Z,20.98
2023-08-26T01:26:32.133Z,20.91
2023-08-26T01:28:59.067Z,20.84
2023-08-26T01:31:29.530Z,20.84
2023-08-26T01:34:11.571Z,20.68
2023-08-26T01:36:41.683Z,20.59
2023-08-26T01:39:09.275Z,20.37
2023-08-26T01:41:37.019Z,20.32
2023-08-26T01:44:03.955Z,20.10
2023-08-26T01:46:40.377Z,19.98
2023-08-26T01:49:07.231Z,19.92
2023-08-26T01:51:34.223Z,19.84
2023-08-26T01:54:00.920Z,19.69
2023-08-26T01:56:27.666Z,19.78
2023-08-26T01:58:54.232Z,19.79
2023-08-26T02:01:21.091Z,19.79
2023-08-26T02:03:47.908Z,19.67
2023-08-26T02:06:14.595Z,19.69
2023-08-26T02:08:41.209Z,19.65
2023-08-26T02:11:08.071Z,19.70
2023-08-26T02:13:34.694Z,19.65
2023-08-26T02:16:01.377Z,19.51
2023-08-26T02:18:28.061Z,19.45
2023-08-26T02:20:54.770Z,19.40
2023-08-26T02:23:21.438Z,19.38
2023-08-26T02:25:48.102Z,19.31
2023-08-26T02:28:14.742Z,19.17
2023-08-26T02:30:41.533Z,19.33
2023-08-26T02:33:10.202Z,19.40
2023-08-26T02:35:37.039Z,19.47
2023-08-26T02:38:03.956Z,19.49
2023-08-26T02:40:30.634Z,19.51
2023-08-26T02:42:57.387Z,19.50
2023-08-26T02:45:24.037Z,19.64
2023-08-26T02:47:50.831Z,19.64
2023-08-26T02:50:17.526Z,19.74
2023-08-26T02:52:44.144Z,19.79
2023-08-26T02:55:10.826Z,19.85
2023-08-26T02:57:37.615Z,19.58
2023-08-26T03:00:05.724Z,19.56
2023-08-26T03:02:32.480Z,19.57
2023-08-26T03:04:59.236Z,19.53
2023-08-26T03:07:25.916Z,19.47
2023-08-26T03:09:52.586Z,19.57
2023-08-26T03:12:19.215Z,19.56
2023-08-26T03:14:45.952Z,19.55
2023-08-26T03:17:12.592Z,19.47
2023-08-26T03:19:39.189Z,19.44
2023-08-26T03:22:05.831Z,19.52
2023-08-26T03:24:37.016Z,19.55
2023-08-26T03:27:03.643Z,19.49
2023-08-26T03:29:30.833Z,19.35
2023-08-26T03:31:57.421Z,19.32
2023-08-26T03:34:24.064Z,19.24
2023-08-26T03:36:50.734Z,19.27
2023-08-26T03:39:17.448Z,19.15
2023-08-26T03:41:44.135Z,19.07
2023-08-26T03:44:10.824Z,19.06
2023-08-26T03:46:37.449Z,19.10
2023-08-26T03:49:04.180Z,19.19
2023-08-26T03:51:31.210Z,19.16
2023-08-26T03:53:57.816Z,19.32
2023-08-26T03:56:24.410Z,19.33
2023-08-26T03:58:53.214Z,19.29
2023-08-26T04:01:19.842Z,19.29
2023-08-26T04:03:46.532Z,19.36
2023-08-26T04:06:17.185Z,19.28
2023-08-26T04:08:43.828Z,19.41
2023-08-26T04:11:10.454Z,19.56
2023-08-26T04:13:37.331Z,19.59
2023-08-26T04:16:04.832Z,19.67
2023-08-26T04:18:32.532Z,19.74
2023-08-26T04:20:59.169Z,19.76
2023-08-26T04:23:25.801Z,19.74
2023-08-26T04:25:55.452Z,19.99
2023-08-26T04:28:22.164Z,19.93
2023-08-26T04:30:48.902Z,20.03
2023-08-26T04:33:15.624Z,20.30
2023-08-26T04:35:42.316Z,20.46
2023-08-26T04:38:08.918Z,20.59
2023-08-26T04:40:35.595Z,20.72
2023-08-26T04:43:04.947Z,20.90
2023-08-26T04:45:31.889Z,21.07
2023-08-26T04:47:59.064Z,21.14
2023-08-26T04:50:26.902Z,21.26
2023-08-26T04:52:53.491Z,21.35
2023-08-26T04:55:20.268Z,21.35
2023-08-26T04:57:46.940Z,21.34
2023-08-26T05:00:14.651Z,21.92
2023-08-26T05:02:41.442Z,22.86
2023-08-26T05:05:08.402Z,23.89
2023-08-26T05:07:35.123Z,24.44
2023-08-26T05:10:04.601Z,25.27
2023-08-26T05:12:32.016Z,26.00
2023-08-26T05:14:58.575Z,26.55
2023-08-26T05:17:25.318Z,26.77
2023-08-26T05:19:52.674Z,27.03
2023-08-26T05:22:19.357Z,26.98
2023-08-26T05:24:46.106Z,26.73
2023-08-26T05:27:12.856Z,26.56
2023-08-26T05:29:39.507Z,26.40
2023-08-26T05:32:06.284Z,26.40
2023-08-26T05:34:33.169Z,26.16
2023-08-26T05:36:59.946Z,26.69
2023-08-26T05:39:26.546Z,26.85
2023-08-26T05:41:53.219Z,26.65
2023-08-26T05:44:19.814Z,26.37
2023-08-26T05:46:46.401Z,26.26
2023-08-26T05:49:12.997Z,26.79
2023-08-26T05:51:39.689Z,26.62
2023-08-26T05:54:07.125Z,26.95
2023-08-26T05:56:33.931Z,26.74
2023-08-26T05:59:00.550Z,26.67
2023-08-26T06:01:27.222Z,26.95
2023-08-26T06:03:53.951Z,26.85
2023-08-26T06:06:20.718Z,27.02
2023-08-26T06:08:47.353Z,26.99
2023-08-26T06:11:13.981Z,26.97
2023-08-26T06:13:40.618Z,26.85
2023-08-26T06:16:07.252Z,26.71
2023-08-26T06:18:33.910Z,26.87
2023-08-26T06:21:00.545Z,26.91
2023-08-26T06:23:27.253Z,26.79
2023-08-26T06:25:55.130Z,26.68
2023-08-26T06:28:22.271Z,26.74
2023-08-26T06:30:48.969Z,26.89
2023-08-26T06:33:15.890Z,26.75
2023-08-26T06:35:48.725Z,26.83
2023-08-26T06:38:16.248Z,27.05
2023-08-26T06:40:43.045Z,27.24
2023-08-26T06:43:09.973Z,27.41
2023-08-26T06:45:36.763Z,27.21
2023-08-26T06:48:03.582Z,27.28
2023-08-26T06:50:30.354Z,27.48
2023-08-26T06:52:56.929Z,27.47
2023-08-26T06:55:23.830Z,27.70
2023-08-26T06:57:50.508Z,28.04
2023-08-26T07:00:17.369Z,28.13
2023-08-26T07:02:44.020Z,27.92
2023-08-26T07:05:10.683Z,27.72
2023-08-26T07:07:37.697Z,28.01
2023-08-26T07:10:06.229Z,28.21
2023-08-26T07:12:33.075Z,28.50
2023-08-26T07:14:59.831Z,28.60
2023-08-26T07:17:26.485Z,28.65
2023-08-26T07:19:53.094Z,28.84
2023-08-26T07:22:27.191Z,28.97
2023-08-26T07:24:56.539Z,28.81
2023-08-26T07:27:24.464Z,28.82
2023-08-26T07:29:51.266Z,28.86
2023-08-26T07:32:17.937Z,28.85
2023-08-26T07:34:44.547Z,29.08
2023-08-26T07:37:11.233Z,29.27
2023-08-26T07:39:37.891Z,29.37
2023-08-26T07:42:05.216Z,29.61
2023-08-26T07:44:31.859Z,29.76
2023-08-26T07:46:58.749Z,29.76
2023-08-26T07:49:25.442Z,29.47
2023-08-26T07:51:52.069Z,29.50
2023-08-26T07:54:18.831Z,29.49
2023-08-26T07:56:45.456Z,29.62
2023-08-26T07:59:12.085Z,29.37
2023-08-26T08:01:38.688Z,29.89
2023-08-26T08:04:05.564Z,29.98
2023-08-26T08:06:32.310Z,29.97
2023-08-26T08:08:59.045Z,29.69
2023-08-26T08:11:25.705Z,30.10
2023-08-26T08:13:52.575Z,29.86
2023-08-26T08:16:19.295Z,30.13
2023-08-26T08:18:45.938Z,29.86
2023-08-26T08:21:12.636Z,30.06
2023-08-26T08:23:39.562Z,29.97
2023-08-26T08:26:06.245Z,29.72
2023-08-26T08:28:32.882Z,30.13
2023-08-26T08:31:00.048Z,30.31
2023-08-26T08:33:26.867Z,30.41
2023-08-26T08:35:53.494Z,30.25
2023-08-26T08:38:20.148Z,30.47
2023-08-26T08:40:46.838Z,30.45
2023-08-26T08:43:15.066Z,30.19
2023-08-26T08:45:43.439Z,30.12
2023-08-26T08:48:11.571Z,30.14
2023-08-26T08:50:39.017Z,30.33
2023-08-26T08:53:07.513Z,30.49
2023-08-26T08:55:34.231Z,30.27
2023-08-26T08:58:02.640Z,30.20
2023-08-26T09:00:30.766Z,30.64
2023-08-26T09:02:59.599Z,30.50
2023-08-26T09:05:27.213Z,30.71
2023-08-26T09:07:55.704Z,30.57
2023-08-26T09:10:23.768Z,30.78
2023-08-26T09:12:50.692Z,31.02
2023-08-26T09:15:17.593Z,31.51
2023-08-26T09:17:47.686Z,31.86
2023-08-26T09:20:14.567Z,32.06
2023-08-26T09:22:41.822Z,32.08
2023-08-26T09:25:08.834Z,31.95
2023-08-26T09:27:42.379Z,31.83
2023-08-26T09:30:09.949Z,31.82
2023-08-26T09:32:44.558Z,31.64
2023-08-26T09:35:19.316Z,31.90
2023-08-26T09:38:03.718Z,31.97
2023-08-26T09:40:31.024Z,32.05
2023-08-26T09:42:57.782Z,31.92
2023-08-26T09:45:25.263Z,31.96
2023-08-26T09:47:52.784Z,32.04
2023-08-26T09:50:32.444Z,32.05
2023-08-26T09:52:59.493Z,32.37
2023-08-26T09:55:26.927Z,32.37
2023-08-26T09:57:54.404Z,32.53
2023-08-26T10:00:21.742Z,32.73
2023-08-26T10:02:50.740Z,32.54
2023-08-26T10:05:21.989Z,32.94
2023-08-26T10:07:51.037Z,33.03
2023-08-26T10:10:32.773Z,32.99
2023-08-26T10:13:05.748Z,32.89
2023-08-26T10:15:35.007Z,32.85
2023-08-26T10:18:17.297Z,33.38
2023-08-26T10:20:45.559Z,33.30
2023-08-26T10:23:13.685Z,32.65
2023-08-26T10:25:41.126Z,32.60
2023-08-26T10:28:08.288Z,32.69
2023-08-26T10:30:35.130Z,33.07
2023-08-26T10:33:03.298Z,33.28
2023-08-26T10:35:30.105Z,33.04
2023-08-26T10:38:16.932Z,33.48
2023-08-26T10:40:43.627Z,33.47
2023-08-26T10:43:13.352Z,33.67
2023-08-26T10:45:48.301Z,33.77
2023-08-26T10:48:15.137Z,33.83
2023-08-26T10:50:45.411Z,33.64
2023-08-26T10:53:22.861Z,33.47
2023-08-26T10:55:53.297Z,33.46
2023-08-26T10:58:21.907Z,33.59
2023-08-26T11:00:50.889Z,33.73
2023-08-26T11:03:22.253Z,34.32
2023-08-26T11:06:02.717Z,34.51
2023-08-26T11:08:29.649Z,34.62
2023-08-26T11:10:56.307Z,34.20
2023-08-26T11:13:23.914Z,34.19
2023-08-26T11:15:52.398Z,33.71
2023-08-26T11:18:21.964Z,33.81
2023-08-26T11:20:50.123Z,33.85
2023-08-26T11:23:16.885Z,34.19
2023-08-26T11:25:43.656Z,34.27
2023-08-26T11:28:15.350Z,34.48
2023-08-26T11:30:44.192Z,34.22
2023-08-26T11:33:18.779Z,34.24
2023-08-26T11:35:58.786Z,34.43
2023-08-26T11:38:36.875Z,34.55
2023-08-26T11:41:07.688Z,34.67
2023-08-26T11:43:37.802Z,34.37
2023-08-26T11:46:07.951Z,34.65
2023-08-26T11:48:38.300Z,34.86
2023-08-26T11:51:05.679Z,34.49
2023-08-26T11:53:32.514Z,34.20
2023-08-26T11:55:59.329Z,34.04
2023-08-26T11:58:29.231Z,34.00
2023-08-26T12:00:56.867Z,33.80
2023-08-26T12:03:23.580Z,34.03
2023-08-26T12:05:53.871Z,34.02
2023-08-26T12:08:22.593Z,34.17
2023-08-26T12:10:50.825Z,34.22
2023-08-26T12:13:17.983Z,34.39
2023-08-26T12:15:45.365Z,34.37
2023-08-26T12:18:12.759Z,34.51
2023-08-26T12:20:42.178Z,34.50
2023-08-26T12:23:09.127Z,34.51
2023-08-26T12:25:37.751Z,34.92
2023-08-26T12:28:25.134Z,35.03
2023-08-26T12:30:52.801Z,35.25
2023-08-26T12:33:26.296Z,35.20
2023-08-26T12:35:55.893Z,35.17
2023-08-26T12:38:24.232Z,34.93
2023-08-26T12:40:51.411Z,35.10
2023-08-26T12:43:21.339Z,35.04
2023-08-26T12:45:50.457Z,35.41
2023-08-26T12:48:27.973Z,35.33
2023-08-26T12:51:04.828Z,35.54
2023-08-26T12:53:31.509Z,35.85
2023-08-26T12:55:59.394Z,35.84
2023-08-26T12:58:26.673Z,35.65
2023-08-26T13:00:53.454Z,35.57
2023-08-26T13:03:20.374Z,35.41
2023-08-26T13:05:47.251Z,35.43
2023-08-26T13:08:15.278Z,35.36
2023-08-26T13:10:42.039Z,35.34
2023-08-26T13:13:08.692Z,35.41
2023-08-26T13:15:39.395Z,35.75
2023-08-26T13:18:06.251Z,36.04
2023-08-26T13:20:32.925Z,36.23
2023-08-26T13:22:59.646Z,36.44
2023-08-26T13:25:26.312Z,36.50
2023-08-26T13:27:52.966Z,36.55
2023-08-26T13:30:19.617Z,36.52
2023-08-26T13:32:46.318Z,36.42
2023-08-26T13:35:14.020Z,35.89
2023-08-26T13:37:42.059Z,35.53
2023-08-26T13:40:09.196Z,35.24
2023-08-26T13:42:35.844Z,35.13
2023-08-26T13:45:02.488Z,35.21
2023-08-26T13:47:29.212Z,35.29
2023-08-26T13:49:55.911Z,35.20
2023-08-26T13:52:22.583Z,35.42
2023-08-26T13:54:49.234Z,35.80
2023-08-26T13:57:17.410Z,35.85
2023-08-26T13:59:44.088Z,35.86
2023-08-26T14:02:10.770Z,35.66
2023-08-26T14:04:37.677Z,35.38
2023-08-26T14:07:04.587Z,35.56
2023-08-26T14:09:31.230Z,35.45
2023-08-26T14:11:59.799Z,35.22
2023-08-26T14:14:26.441Z,35.25
2023-08-26T14:16:53.195Z,35.25
2023-08-26T14:19:19.866Z,35.62
2023-08-26T14:21:46.511Z,35.58
2023-08-26T14:24:13.153Z,35.33
2023-08-26T14:26:40.264Z,35.29
2023-08-26T14:29:07.189Z,35.43
2023-08-26T14:31:33.841Z,35.35
2023-08-26T14:34:00.568Z,35.17
2023-08-26T14:36:27.228Z,34.95
2023-08-26T14:38:55.062Z,35.13
2023-08-26T14:41:21.709Z,34.92
2023-08-26T14:43:49.811Z,34.65
2023-08-26T14:46:16.511Z,33.93
2023-08-26T14:48:43.355Z,33.84
2023-08-26T14:51:10.035Z,33.52
2023-08-26T14:53:37.875Z,32.95
2023-08-26T14:56:04.735Z,32.67
2023-08-26T14:58:31.493Z,32.39
2023-08-26T15:00:58.245Z,31.98
2023-08-26T15:03:25.472Z,31.72
2023-08-26T15:05:59.347Z,31.62
2023-08-26T15:08:26.298Z,31.55
2023-08-26T15:10:53.226Z,31.47
2023-08-26T15:13:22.135Z,31.36
2023-08-26T15:15:49.560Z,31.11
2023-08-26T15:18:19.193Z,31.04
2023-08-26T15:20:46.984Z,30.95
2023-08-26T15:23:15.637Z,30.86
2023-08-26T15:25:44.769Z,30.78
2023-08-26T15:28:11.769Z,30.66
2023-08-26T15:30:38.524Z,30.70
2023-08-26T15:33:05.588Z,30.58
2023-08-26T15:35:32.622Z,30.64
2023-08-26T15:37:59.727Z,30.54
2023-08-26T15:40:26.559Z,30.52
2023-08-26T15:42:56.036Z,30.50
2023-08-26T15:45:23.054Z,30.49
2023-08-26T15:47:51.319Z,30.50
2023-08-26T15:50:18.205Z,30.50
2023-08-26T15:52:44.921Z,30.46
2023-08-26T15:55:11.694Z,30.45
2023-08-26T15:57:38.281Z,30.46
2023-08-26T16:00:05.396Z,30.41
2023-08-26T16:02:32.134Z,30.41
2023-08-26T16:04:58.896Z,30.28
2023-08-26T16:07:25.587Z,30.31
2023-08-26T16:09:52.256Z,30.31
2023-08-26T16:12:18.941Z,30.24
2023-08-26T16:14:45.597Z,30.19
2023-08-26T16:17:12.455Z,30.11
2023-08-26T16:19:39.167Z,30.19
2023-08-26T16:22:05.858Z,29.98
2023-08-26T16:24:32.506Z,30.18
2023-08-26T16:26:59.151Z,30.15
2023-08-26T16:29:25.820Z,30.08
2023-08-26T16:31:52.499Z,30.00
2023-08-26T16:34:19.627Z,30.00
2023-08-26T16:36:46.384Z,30.11
2023-08-26T16:39:14.216Z,30.18
2023-08-26T16:41:41.006Z,30.10
2023-08-26T16:44:07.658Z,30.01
2023-08-26T16:46:34.346Z,30.12
2023-08-26T16:49:01.100Z,29.97
2023-08-26T16:51:27.751Z,30.05
2023-08-26T16:53:54.337Z,29.99
2023-08-26T16:56:20.979Z,29.93
2023-08-26T16:58:47.862Z,29.87
2023-08-26T17:01:14.521Z,29.78
2023-08-26T17:03:41.247Z,29.72
2023-08-26T17:06:09.304Z,29.64
2023-08-26T17:08:36.662Z,29.50
2023-08-26T17:11:04.898Z,29.50
2023-08-26T17:13:31.839Z,29.44
2023-08-26T17:15:58.886Z,29.34
2023-08-26T17:18:25.589Z,29.34
2023-08-26T17:20:52.284Z,29.26
2023-08-26T17:23:18.945Z,29.23
2023-08-26T17:25:45.659Z,29.16
2023-08-26T17:28:12.381Z,29.15
2023-08-26T17:30:39.300Z,28.99
2023-08-26T17:33:06.455Z,28.95
2023-08-26T17:35:37.422Z,28.89
2023-08-26T17:38:10.597Z,28.64
2023-08-26T17:40:48.109Z,28.58
2023-08-26T17:43:15.190Z,28.64
2023-08-26T17:45:45.796Z,28.61
2023-08-26T17:48:13.153Z,28.42
2023-08-26T17:50:54.036Z,28.41
2023-08-26T17:53:21.152Z,28.27
2023-08-26T17:55:47.953Z,28.17
2023-08-26T17:58:15.611Z,28.11
2023-08-26T18:00:43.616Z,27.96
2023-08-26T18:03:11.847Z,27.85
2023-08-26T18:05:39.367Z,27.53
2023-08-26T18:08:07.257Z,27.54
2023-08-26T18:10:35.185Z,27.45
2023-08-26T18:13:07.882Z,27.33
2023-08-26T18:15:36.107Z,27.23
2023-08-26T18:18:03.805Z,27.19
2023-08-26T18:20:30.698Z,27.16
2023-08-26T18:22:57.719Z,27.08
2023-08-26T18:25:24.697Z,27.12
2023-08-26T18:27:52.776Z,27.02
2023-08-26T18:30:19.789Z,27.06
2023-08-26T18:32:46.558Z,26.96
2023-08-26T18:35:13.314Z,26.89
2023-08-26T18:37:40.432Z,26.75
2023-08-26T18:40:07.589Z,26.62
2023-08-26T18:42:34.722Z,26.59
2023-08-26T18:45:01.926Z,26.46
2023-08-26T18:47:28.639Z,26.31
2023-08-26T18:49:55.340Z,26.30
2023-08-26T18:52:22.100Z,26.20
2023-08-26T18:54:48.706Z,26.14
2023-08-26T18:57:15.500Z,26.04
2023-08-26T18:59:42.293Z,26.13
2023-08-26T19:02:09.046Z,26.09
2023-08-26T19:04:36.752Z,25.88
2023-08-26T19:07:03.747Z,25.89
2023-08-26T19:09:31.473Z,26.00
2023-08-26T19:11:58.569Z,25.97
2023-08-26T19:14:25.173Z,25.84
2023-08-26T19:16:52.022Z,25.84
2023-08-26T19:19:18.775Z,25.79
2023-08-26T19:21:45.469Z,25.71
2023-08-26T19:24:12.207Z,25.69
2023-08-26T19:26:38.990Z,25.68
2023-08-26T19:29:05.661Z,25.54
2023-08-26T19:31:32.371Z,25.59
2023-08-26T19:33:59.007Z,25.59
2023-08-26T19:36:26.910Z,25.66
2023-08-26T19:38:53.653Z,25.62
2023-08-26T19:41:20.465Z,25.50
2023-08-26T19:43:47.444Z,25.52
2023-08-26T19:46:14.232Z,25.50
2023-08-26T19:48:54.726Z,25.45
2023-08-26T19:51:23.028Z,25.38
2023-08-26T19:53:49.739Z,24.84
2023-08-26T19:56:16.323Z,24.32
2023-08-26T19:58:43.021Z,23.99
2023-08-26T20:01:09.675Z,23.93
2023-08-26T20:03:36.516Z,23.85
2023-08-26T20:06:03.384Z,23.89
2023-08-26T20:08:29.994Z,23.96
2023-08-26T20:10:56.717Z,24.21
2023-08-26T20:13:23.510Z,24.46
2023-08-26T20:15:50.164Z,24.58
2023-08-26T20:18:16.791Z,24.61
2023-08-26T20:20:43.417Z,24.60
2023-08-26T20:23:10.103Z,24.66
2023-08-26T20:25:47.226Z,24.80
2023-08-26T20:28:15.015Z,24.89
2023-08-26T20:30:41.708Z,24.90
2023-08-26T20:33:08.429Z,24.78
2023-08-26T20:35:35.175Z,24.56
2023-08-26T20:38:01.811Z,24.38
2023-08-26T20:40:28.805Z,24.26
2023-08-26T20:42:55.435Z,23.82
2023-08-26T20:45:22.140Z,23.71
2023-08-26T20:47:48.826Z,23.52
2023-08-26T20:50:15.496Z,23.30
2023-08-26T20:52:42.246Z,23.24
2023-08-26T20:55:09.207Z,23.16
2023-08-26T20:57:35.925Z,22.91
2023-08-26T21:00:02.795Z,22.93
2023-08-26T21:02:29.615Z,22.99
2023-08-26T21:04:56.423Z,23.13
2023-08-26T21:07:23.275Z,23.11
2023-08-26T21:09:49.983Z,23.18
2023-08-26T21:12:16.730Z,23.13
2023-08-26T21:14:43.406Z,23.22
2023-08-26T21:17:10.052Z,23.16
2023-08-26T21:19:36.705Z,23.07
2023-08-26T21:22:03.426Z,22.97
2023-08-26T21:24:30.104Z,22.88
2023-08-26T21:26:56.794Z,22.89
2023-08-26T21:29:23.974Z,22.49
2023-08-26T21:31:50.863Z,22.84
2023-08-26T21:34:18.175Z,22.82
2023-08-26T21:36:44.995Z,22.79
2023-08-26T21:39:11.642Z,22.77
2023-08-26T21:41:38.336Z,22.70
2023-08-26T21:44:05.355Z,22.74
2023-08-26T21:46:32.514Z,22.65
2023-08-26T21:49:02.431Z,22.56
2023-08-26T21:51:29.089Z,22.63
2023-08-26T21:53:56.442Z,22.70
2023-08-26T21:56:23.345Z,22.75
2023-08-26T21:58:50.244Z,22.76
2023-08-26T22:01:16.885Z,22.80
2023-08-26T22:03:43.519Z,22.72
2023-08-26T22:06:10.195Z,22.82
2023-08-26T22:08:37.277Z,22.86
2023-08-26T22:11:07.925Z,22.86
2023-08-26T22:13:34.847Z,22.71
2023-08-26T22:16:01.540Z,22.47
2023-08-26T22:18:28.122Z,21.73
2023-08-26T22:20:55.167Z,21.50
2023-08-26T22:23:21.866Z,21.30
2023-08-26T22:25:48.566Z,21.23
2023-08-26T22:28:15.777Z,21.23
2023-08-26T22:30:42.907Z,21.39
2023-08-26T22:33:10.111Z,21.39
2023-08-26T22:35:37.028Z,21.31
2023-08-26T22:38:03.811Z,21.31
2023-08-26T22:40:30.452Z,21.29
2023-08-26T22:42:57.576Z,21.15
2023-08-26T22:45:24.661Z,21.15
2023-08-26T22:47:51.399Z,21.13
2023-08-26T22:50:18.210Z,21.04
2023-08-26T22:52:44.861Z,21.10
2023-08-26T22:55:11.587Z,21.11
2023-08-26T22:57:38.269Z,21.15
2023-08-26T23:00:08.071Z,21.13
2023-08-26T23:02:34.917Z,21.10
2023-08-26T23:05:01.726Z,20.97
2023-08-26T23:07:29.373Z,21.00
2023-08-26T23:09:59.974Z,20.94
2023-08-26T23:12:27.180Z,20.99
2023-08-26T23:14:55.657Z,21.01
2023-08-26T23:17:25.835Z,21.03
2023-08-26T23:19:52.557Z,20.93
2023-08-26T23:22:20.081Z,21.05
2023-08-26T23:24:46.707Z,21.02
2023-08-26T23:27:13.732Z,20.88
2023-08-26T23:29:40.440Z,20.77
2023-08-26T23:32:07.626Z,20.82
2023-08-26T23:34:34.568Z,20.91
2023-08-26T23:37:01.182Z,20.86
2023-08-26T23:39:27.848Z,21.05
2023-08-26T23:41:54.544Z,21.05
2023-08-26T23:44:21.249Z,21.15
2023-08-26T23:46:47.878Z,21.33
2023-08-26T23:49:14.570Z,21.29
2023-08-26T23:51:41.206Z,21.35
2023-08-26T23:54:08.850Z,21.29
2023-08-26T23:56:35.538Z,21.26
2023-08-26T23:59:02.420Z,21.08
